createdAt,value
2023-05-03T10:19:18.541Z,20.90
2023-05-03T10:22:08.464Z,21.00
2023-05-03T10:24:36.950Z,21.10
2023-05-03T10:27:08.494Z,21.10
2023-05-03T10:29:36.030Z,21.20
2023-05-03T10:32:26.553Z,21.30
2023-05-03T10:35:12.975Z,21.30
2023-05-03T10:37:43.884Z,21.30
2023-05-03T10:40:15.862Z,21.20
2023-05-03T10:42:49.910Z,21.20
2023-05-03T10:45:31.022Z,21.30
2023-05-03T10:48:13.164Z,21.30
2023-05-03T10:50:41.333Z,21.40
2023-05-03T10:53:09.739Z,21.50
2023-05-03T10:55:36.630Z,21.40
2023-05-03T10:58:06.616Z,21.40
2023-05-03T11:00:33.696Z,21.40
2023-05-03T11:03:14.051Z,21.50
2023-05-03T11:05:42.872Z,21.60
2023-05-03T11:08:19.651Z,21.70
2023-05-03T11:10:47.991Z,21.80
2023-05-03T11:13:15.537Z,21.80
2023-05-03T11:15:42.752Z,21.80
2023-05-03T11:18:13.657Z,21.80
2023-05-03T11:20:40.968Z,21.80
2023-05-03T11:23:09.021Z,21.80
2023-05-03T11:25:36.097Z,21.70
2023-05-03T11:28:07.061Z,21.80
2023-05-03T11:30:35.979Z,21.90
2023-05-03T11:33:03.317Z,22.00
2023-05-03T11:35:30.736Z,22.00
2023-05-03T11:37:57.764Z,22.10
2023-05-03T11:40:24.715Z,22.20
2023-05-03T11:42:59.054Z,22.20
2023-05-03T11:45:41.592Z,22.30
2023-05-03T11:48:08.719Z,22.40
2023-05-03T11:50:55.920Z,22.40
2023-05-03T11:53:27.072Z,22.40
2023-05-03T11:55:54.980Z,22.30
2023-05-03T11:58:26.593Z,22.40
2023-05-03T12:00:56.386Z,22.40
2023-05-03T12:03:31.636Z,22.50
2023-05-03T12:06:00.571Z,22.40
2023-05-03T12:08:31.288Z,22.40
2023-05-03T12:11:02.657Z,22.50
2023-05-03T12:13:41.527Z,22.50
2023-05-03T12:16:13.319Z,22.50
2023-05-03T12:18:57.932Z,22.40
2023-05-03T12:23:57.341Z,22.40
2023-05-03T12:26:27.383Z,22.40
2023-05-03T12:28:56.903Z,22.40
2023-05-03T12:31:24.455Z,22.40
2023-05-03T12:36:24.886Z,22.20
2023-05-03T12:38:56.194Z,22.20
2023-05-03T12:43:58.838Z,22.10
2023-05-03T12:46:34.768Z,22.00
2023-05-03T12:49:06.433Z,22.00
2023-05-03T12:51:34.379Z,22.10
2023-05-03T12:54:02.181Z,22.00
2023-05-03T12:56:32.793Z,22.00
2023-05-03T13:04:27.627Z,22.00
2023-05-03T13:06:47.627Z,22.00
2023-05-03T13:09:20.794Z,22.10
2023-05-03T13:11:52.919Z,22.10
2023-05-03T13:14:20.571Z,22.10
2023-05-03T13:16:49.157Z,22.10
2023-05-03T13:19:16.468Z,22.30
2023-05-03T13:21:43.402Z,22.40
2023-05-03T13:24:12.289Z,22.50
2023-05-03T13:26:39.128Z,22.60
2023-05-03T13:29:06.106Z,22.60
2023-05-03T13:31:33.264Z,22.60
2023-05-03T13:34:00.210Z,22.70
2023-05-03T13:36:28.637Z,22.60
2023-05-03T13:38:55.765Z,22.60
2023-05-03T13:41:23.067Z,22.60
2023-05-03T13:43:50.024Z,22.50
2023-05-03T13:46:17.599Z,22.60
2023-05-03T13:48:44.723Z,22.60
2023-05-03T13:51:13.075Z,22.60
2023-05-03T13:53:40.457Z,22.60
2023-05-03T13:56:07.813Z,22.70
2023-05-03T13:58:36.208Z,22.80
2023-05-03T14:01:03.783Z,22.80
2023-05-03T14:03:32.600Z,22.90
2023-05-03T14:05:59.679Z,22.90
2023-05-03T14:08:26.710Z,22.90
2023-05-03T14:10:54.256Z,23.00
2023-05-03T14:13:22.007Z,23.00
2023-05-03T14:15:49.080Z,22.90
2023-05-03T14:18:16.283Z,22.90
2023-05-03T14:20:43.411Z,22.90
2023-05-03T14:23:10.621Z,22.80
2023-05-03T14:25:37.486Z,22.80
2023-05-03T14:28:05.427Z,22.70
2023-05-03T14:30:33.681Z,22.60
2023-05-03T14:33:00.951Z,22.50
2023-05-03T14:35:28.039Z,22.30
2023-05-03T14:37:54.949Z,22.20
2023-05-03T14:40:21.876Z,22.20
2023-05-03T14:42:49.003Z,22.10
2023-05-03T14:45:16.088Z,22.10
2023-05-03T14:47:43.135Z,22.10
2023-05-03T14:50:12.988Z,21.90
2023-05-03T14:52:39.861Z,21.80
2023-05-03T14:55:07.782Z,21.80
2023-05-03T14:57:34.850Z,21.80
2023-05-03T15:00:04.479Z,21.40
2023-05-03T15:02:31.839Z,21.10
2023-05-03T15:04:58.877Z,20.80
2023-05-03T15:07:25.866Z,20.70
2023-05-03T15:09:52.712Z,20.60
2023-05-03T15:12:19.556Z,20.60
2023-05-03T15:14:46.847Z,20.70
2023-05-03T15:17:13.883Z,20.70
2023-05-03T15:19:41.034Z,20.70
2023-05-03T15:22:08.095Z,20.60
2023-05-03T15:24:35.092Z,20.60
2023-05-03T15:27:04.997Z,20.60
2023-05-03T15:29:31.908Z,20.50
2023-05-03T15:31:58.860Z,20.50
2023-05-03T15:34:26.200Z,20.50
2023-05-03T15:36:53.236Z,20.60
2023-05-03T15:39:20.161Z,20.60
2023-05-03T15:41:47.448Z,20.70
2023-05-03T15:44:15.075Z,20.60
2023-05-03T15:46:43.061Z,20.60
2023-05-03T15:49:11.874Z,20.60
2023-05-03T15:51:39.326Z,20.60
2023-05-03T15:54:09.219Z,20.60
2023-05-03T15:56:37.664Z,20.60
2023-05-03T15:59:05.369Z,20.60
2023-05-03T16:01:32.191Z,20.70
2023-05-03T16:03:59.085Z,20.60
2023-05-03T16:06:26.046Z,20.60
2023-05-03T16:08:52.905Z,20.70
2023-05-03T16:11:20.159Z,20.70
2023-05-03T16:13:46.985Z,20.70
2023-05-03T16:16:13.916Z,20.70
2023-05-03T16:18:40.861Z,20.60
2023-05-03T16:21:07.735Z,20.50
2023-05-03T16:23:36.707Z,20.60
2023-05-03T16:26:14.494Z,20.70
2023-05-03T16:28:42.692Z,20.70
2023-05-03T16:31:09.684Z,20.80
2023-05-03T16:33:37.620Z,20.80
2023-05-03T16:36:04.982Z,20.80
2023-05-03T16:38:32.246Z,20.80
2023-05-03T16:41:02.281Z,20.80
2023-05-03T16:43:30.139Z,20.80
2023-05-03T16:46:00.807Z,20.80
2023-05-03T16:48:29.471Z,20.80
2023-05-03T16:50:56.793Z,20.80
2023-05-03T16:53:26.118Z,20.80
2023-05-03T16:55:54.047Z,20.80
2023-05-03T16:58:21.373Z,20.70
2023-05-03T17:00:48.360Z,20.70
2023-05-03T17:03:15.456Z,20.60
2023-05-03T17:05:42.566Z,20.60
2023-05-03T17:08:09.569Z,20.50
2023-05-03T17:10:38.609Z,20.30
2023-05-03T17:13:09.531Z,20.30
2023-05-03T17:15:37.056Z,20.20
2023-05-03T17:18:05.027Z,20.20
2023-05-03T17:20:33.282Z,20.20
2023-05-03T17:23:00.537Z,20.20
2023-05-03T17:25:27.476Z,20.10
2023-05-03T17:27:54.440Z,20.10
2023-05-03T17:30:24.302Z,20.10
2023-05-03T17:32:51.323Z,20.00
2023-05-03T17:35:18.376Z,19.80
2023-05-03T17:37:48.301Z,19.70
2023-05-03T17:40:15.351Z,19.60
2023-05-03T17:42:42.306Z,19.60
2023-05-03T17:45:12.064Z,19.50
2023-05-03T17:47:39.048Z,19.30
2023-05-03T17:50:06.868Z,19.20
2023-05-03T17:52:33.814Z,19.30
2023-05-03T17:55:01.135Z,19.20
2023-05-03T17:57:28.064Z,19.10
2023-05-03T17:59:54.877Z,19.00
2023-05-03T18:02:21.746Z,19.00
2023-05-03T18:04:48.667Z,18.90
2023-05-03T18:07:15.733Z,18.90
2023-05-03T18:09:42.733Z,19.00
2023-05-03T18:12:09.517Z,19.00
2023-05-03T18:14:36.826Z,18.90
2023-05-03T18:17:03.748Z,18.80
2023-05-03T18:19:31.311Z,18.70
2023-05-03T18:21:58.262Z,18.70
2023-05-03T18:24:25.145Z,18.80
2023-05-03T18:26:52.182Z,18.90
2023-05-03T18:29:19.041Z,18.90
2023-05-03T18:31:46.118Z,18.90
2023-05-03T18:34:13.097Z,18.90
2023-05-03T18:36:40.262Z,18.90
2023-05-03T18:39:09.037Z,19.00
2023-05-03T18:41:36.233Z,19.10
2023-05-03T18:44:04.148Z,19.00
2023-05-03T18:46:31.261Z,18.90
2023-05-03T18:48:58.247Z,18.70
2023-05-03T18:51:25.915Z,18.40
2023-05-03T18:53:53.765Z,18.40
2023-05-03T18:56:21.555Z,18.40
2023-05-03T18:58:49.281Z,18.40
2023-05-03T19:01:16.861Z,18.50
2023-05-03T19:03:43.793Z,18.60
2023-05-03T19:06:12.180Z,18.50
2023-05-03T19:08:39.678Z,18.40
2023-05-03T19:11:08.250Z,18.40
2023-05-03T19:13:36.762Z,18.50
2023-05-03T19:16:04.252Z,18.50
2023-05-03T19:18:32.953Z,18.50
2023-05-03T19:21:02.032Z,18.60
2023-05-03T19:23:29.918Z,18.60
2023-05-03T19:26:00.888Z,18.50
2023-05-03T19:28:28.925Z,18.50
2023-05-03T19:30:58.574Z,18.40
2023-05-03T19:33:26.678Z,18.40
2023-05-03T19:35:54.955Z,18.50
2023-05-03T19:38:24.582Z,18.50
2023-05-03T19:40:59.136Z,18.50
2023-05-03T19:43:26.442Z,18.50
2023-05-03T19:45:54.517Z,18.50
2023-05-03T19:48:21.716Z,18.40
2023-05-03T19:50:48.660Z,18.30
2023-05-03T19:53:15.620Z,18.20
2023-05-03T19:55:42.480Z,18.10
2023-05-03T19:58:09.362Z,18.10
2023-05-03T20:00:36.230Z,18.10
2023-05-03T20:03:06.094Z,18.10
2023-05-03T20:05:33.254Z,18.20
2023-05-03T20:08:00.275Z,18.20
